This is the latest recevied weather packets stored in our database for station/object GAPWX. If no packets are shown the sender has not sent any weather packets the latest 10 day(s).
| Time | Temp. | Humidity | Pressure | Rain* | Wind** | Luminosity | Snow |
|---|---|---|---|---|---|---|---|
| 1777610715 | 8.89° C | 57% | 1017.3 hPa | 0 mm | - | - | - |
| 1777610413 | 8.89° C | 57% | 1017.1 hPa | 0 mm | - | - | - |
| 1777608905 | 10° C | 56% | 1016.9 hPa | 0 mm | - | - | - |
| 1777607096 | 10.56° C | 54% | 1016.6 hPa | 0 mm | - | - | - |
| 1777606493 | 11.11° C | 53% | 1016.5 hPa | 0 mm | - | - | - |
| 1777605893 | 11.67° C | 52% | 1016.5 hPa | 0 mm | - | - | - |
| 1777605288 | 12.22° C | 51% | 1016.4 hPa | 0 mm | - | - | - |
| 1777604988 | 12.22° C | 51% | 1016.3 hPa | 0 mm | - | - | - |
| 1777603782 | 12.78° C | 49% | 1016.1 hPa | 0 mm | - | - | - |
| 1777597152 | 15.56° C | 44% | 1015.7 hPa | 0 mm | - | - | - |
| 1777595949 | 15.56° C | 42% | 1015.5 hPa | 0 mm | - | - | - |
| 1777595645 | 15.56° C | 42% | 1015.5 hPa | 0 mm | - | - | - |
| 1777590225 | 17.22° C | 31% | 1015.5 hPa | 0 mm | - | - | - |
| 1777569430 | 13.33° C | 39% | 1017.2 hPa | 0 mm | - | - | - |
| 1777566416 | 11.67° C | 44% | 1017.3 hPa | 0 mm | - | - | - |
| 1777565512 | 11.67° C | 46% | 1017.3 hPa | 0 mm | - | - | - |
| 1777564908 | 11.11° C | 50% | 1017.2 hPa | 0 mm | - | - | - |
| 1777564004 | 10° C | 52% | 1017.2 hPa | 0 mm | - | - | - |
| 1777562811 | 7.78° C | 58% | 1017.3 hPa | 0 mm | - | - | - |
| 1777560388 | 5.56° C | 62% | 1017.3 hPa | 0 mm | - | - | - |
| 1777557977 | 2.78° C | 70% | 1017.3 hPa | 0 mm | - | - | - |
| 1777557077 | 2.22° C | 72% | 1017.4 hPa | 0 mm | - | - | - |
| 1777551064 | 2.22° C | 69% | 1017.1 hPa | 0 mm | - | - | - |
| 1777539894 | 4.44° C | 68% | 1017.5 hPa | 0 mm | - | - | - |
| 1777539601 | 4.44° C | 69% | 1017.7 hPa | 0 mm | - | - | - |
* Rain since midnight (hover to see other rain measurements)
** Current wind speed in m/s (hover to see current wind gust speed)